createdAt,value
2023-05-21T00:00:03.434Z,15.15
2023-05-21T00:00:13.691Z,15.15
2023-05-21T00:00:23.934Z,15.14
2023-05-21T00:00:34.208Z,15.14
2023-05-21T00:00:44.465Z,15.12
2023-05-21T00:00:54.718Z,15.12
2023-05-21T00:01:04.990Z,15.15
2023-05-21T00:01:15.243Z,15.12
2023-05-21T00:01:25.547Z,15.11
2023-05-21T00:01:35.820Z,15.12
2023-05-21T00:01:46.103Z,15.11
2023-05-21T00:01:56.383Z,15.11
2023-05-21T00:02:06.641Z,15.14
2023-05-21T00:02:17.075Z,15.11
2023-05-21T00:02:27.495Z,15.11
2023-05-21T00:02:37.651Z,15.11
2023-05-21T00:02:48.073Z,15.10
2023-05-21T00:02:58.314Z,15.12
2023-05-21T00:03:08.668Z,15.10
2023-05-21T00:03:19.076Z,15.10
2023-05-21T00:03:29.320Z,15.08
2023-05-21T00:03:39.671Z,15.08
2023-05-21T00:03:50.148Z,15.08
2023-05-21T00:04:00.470Z,15.10
2023-05-21T00:04:10.550Z,15.10
2023-05-21T00:04:20.821Z,15.07
2023-05-21T00:04:31.077Z,15.07
2023-05-21T00:04:41.340Z,15.08
2023-05-21T00:04:51.603Z,15.07
2023-05-21T00:05:01.861Z,15.07
2023-05-21T00:05:14.482Z,15.07
2023-05-21T00:05:22.492Z,15.07
2023-05-21T00:05:32.787Z,15.05
2023-05-21T00:05:43.095Z,15.07
2023-05-21T00:05:53.441Z,15.05
2023-05-21T00:06:03.829Z,15.05
2023-05-21T00:06:14.104Z,15.04
2023-05-21T00:06:24.396Z,15.05
2023-05-21T00:06:34.826Z,15.05
2023-05-21T00:06:45.106Z,15.04
2023-05-21T00:06:55.358Z,15.04
2023-05-21T00:07:05.606Z,15.05
2023-05-21T00:07:15.873Z,15.05
2023-05-21T00:07:26.131Z,15.04
2023-05-21T00:07:36.389Z,15.04
2023-05-21T00:07:46.650Z,15.04
2023-05-21T00:07:56.921Z,15.04
2023-05-21T00:08:07.180Z,15.02
2023-05-21T00:08:17.437Z,15.02
2023-05-21T00:08:27.692Z,15.02
2023-05-21T00:08:37.953Z,15.00
2023-05-21T00:08:48.214Z,15.04
2023-05-21T00:08:58.488Z,15.02
2023-05-21T00:09:08.742Z,15.02
2023-05-21T00:09:19.026Z,15.00
2023-05-21T00:09:29.281Z,15.00
2023-05-21T00:09:39.565Z,15.00
2023-05-21T00:09:49.808Z,15.00
2023-05-21T00:10:00.069Z,15.00
2023-05-21T00:10:10.331Z,14.99
2023-05-21T00:10:20.608Z,14.99
2023-05-21T00:10:30.862Z,14.99
2023-05-21T00:10:41.134Z,14.99
2023-05-21T00:10:51.397Z,14.99
2023-05-21T00:11:01.665Z,14.97
2023-05-21T00:11:11.931Z,14.99
2023-05-21T00:11:22.219Z,14.99
2023-05-21T00:11:32.466Z,14.96
2023-05-21T00:11:42.728Z,14.97
2023-05-21T00:11:52.987Z,14.97
2023-05-21T00:12:03.280Z,14.96
2023-05-21T00:12:13.536Z,14.97
2023-05-21T00:12:23.796Z,14.97
2023-05-21T00:12:34.061Z,14.96
2023-05-21T00:12:44.337Z,14.99
2023-05-21T00:12:54.580Z,14.97
2023-05-21T00:13:04.844Z,14.94
2023-05-21T00:13:15.111Z,14.96
2023-05-21T00:13:25.376Z,14.96
2023-05-21T00:13:35.635Z,14.96
2023-05-21T00:13:45.906Z,14.94
2023-05-21T00:13:56.167Z,14.96
2023-05-21T00:14:06.446Z,14.96
2023-05-21T00:14:16.693Z,14.94
2023-05-21T00:14:26.966Z,14.94
2023-05-21T00:14:37.230Z,14.94
2023-05-21T00:14:47.512Z,14.93
2023-05-21T00:14:57.748Z,14.94
2023-05-21T00:15:08.019Z,14.93
2023-05-21T00:15:18.279Z,14.92
2023-05-21T00:15:28.580Z,14.93
2023-05-21T00:15:38.880Z,14.93
2023-05-21T00:15:49.118Z,14.93
2023-05-21T00:15:59.421Z,14.92
2023-05-21T00:16:09.708Z,14.93
2023-05-21T00:16:19.945Z,14.93
2023-05-21T00:16:30.310Z,14.92
2023-05-21T00:16:40.516Z,14.92
2023-05-21T00:16:50.866Z,14.90
2023-05-21T00:17:01.155Z,14.92
2023-05-21T00:17:11.434Z,14.92
2023-05-21T00:17:21.671Z,14.89
2023-05-21T00:17:31.960Z,14.92
2023-05-21T00:17:42.336Z,14.89
2023-05-21T00:17:52.700Z,14.90
2023-05-21T00:18:03.022Z,14.89
2023-05-21T00:18:13.295Z,14.92
2023-05-21T00:18:23.551Z,14.90
2023-05-21T00:18:33.818Z,14.89
2023-05-21T00:18:44.086Z,14.87
2023-05-21T00:18:54.419Z,14.89
2023-05-21T00:19:04.604Z,14.87
2023-05-21T00:19:14.905Z,14.89
2023-05-21T00:19:25.302Z,14.87
2023-05-21T00:19:35.436Z,14.89
2023-05-21T00:19:45.684Z,14.86
2023-05-21T00:19:55.948Z,14.86
2023-05-21T00:20:06.266Z,14.86
2023-05-21T00:20:16.531Z,14.87
2023-05-21T00:20:26.857Z,14.87
2023-05-21T00:20:37.147Z,14.87
2023-05-21T00:20:47.395Z,14.86
2023-05-21T00:20:57.800Z,14.86
2023-05-21T00:21:08.054Z,14.86
2023-05-21T00:21:18.314Z,14.86
2023-05-21T00:21:28.582Z,14.85
2023-05-21T00:21:38.838Z,14.82
2023-05-21T00:21:49.101Z,14.85
2023-05-21T00:21:59.370Z,14.82
2023-05-21T00:22:09.618Z,14.85
2023-05-21T00:22:19.878Z,14.82
2023-05-21T00:22:30.140Z,14.82
2023-05-21T00:22:40.404Z,14.81
2023-05-21T00:22:50.667Z,14.82
2023-05-21T00:23:00.940Z,14.82
2023-05-21T00:23:11.199Z,14.81
2023-05-21T00:23:21.499Z,14.82
2023-05-21T00:23:31.751Z,14.81
2023-05-21T00:23:42.020Z,14.79
2023-05-21T00:23:52.271Z,14.81
2023-05-21T00:24:02.526Z,14.79
2023-05-21T00:24:12.791Z,14.79
2023-05-21T00:24:23.063Z,14.81
2023-05-21T00:24:33.309Z,14.79
2023-05-21T00:24:43.634Z,14.81
2023-05-21T00:24:53.894Z,14.79
2023-05-21T00:25:04.176Z,14.78
2023-05-21T00:25:14.437Z,14.78
2023-05-21T00:25:24.693Z,14.79
2023-05-21T00:25:35.132Z,14.77
2023-05-21T00:25:45.272Z,14.79
2023-05-21T00:25:55.538Z,14.78
2023-05-21T00:26:05.786Z,14.79
2023-05-21T00:26:16.057Z,14.77
2023-05-21T00:26:26.301Z,14.77
2023-05-21T00:26:36.560Z,14.78
2023-05-21T00:26:46.834Z,14.77
2023-05-21T00:26:57.081Z,14.77
2023-05-21T00:27:07.438Z,14.77
2023-05-21T00:27:17.682Z,14.74
2023-05-21T00:27:27.954Z,14.77
2023-05-21T00:27:38.227Z,14.77
2023-05-21T00:27:48.469Z,14.74
2023-05-21T00:27:58.738Z,14.74
2023-05-21T00:28:08.997Z,14.74
2023-05-21T00:28:19.266Z,14.74
2023-05-21T00:28:29.518Z,14.74
2023-05-21T00:28:39.799Z,14.73
2023-05-21T00:28:50.055Z,14.73
2023-05-21T00:29:00.318Z,14.71
2023-05-21T00:29:10.571Z,14.71
2023-05-21T00:29:20.847Z,14.71
2023-05-21T00:29:31.115Z,14.73
2023-05-21T00:29:42.926Z,14.71
2023-05-21T00:29:51.644Z,14.73
2023-05-21T00:30:01.886Z,14.73
2023-05-21T00:30:12.146Z,14.70
2023-05-21T00:30:22.447Z,14.71
2023-05-21T00:30:32.680Z,14.70
2023-05-21T00:30:42.938Z,14.71
2023-05-21T00:30:53.241Z,14.71
2023-05-21T00:31:03.434Z,14.71
2023-05-21T00:31:13.738Z,14.70
2023-05-21T00:31:24.027Z,14.67
2023-05-21T00:31:34.394Z,14.68
2023-05-21T00:31:44.752Z,14.67
2023-05-21T00:31:55.010Z,14.68
2023-05-21T00:32:05.381Z,14.67
2023-05-21T00:32:15.658Z,14.68
2023-05-21T00:32:25.974Z,14.68
2023-05-21T00:32:36.233Z,14.68
2023-05-21T00:32:46.533Z,14.67
2023-05-21T00:32:56.794Z,14.67
2023-05-21T00:33:07.156Z,14.68
2023-05-21T00:33:17.392Z,14.67
2023-05-21T00:33:27.654Z,14.67
2023-05-21T00:33:37.920Z,14.63
2023-05-21T00:33:48.193Z,14.63
2023-05-21T00:33:58.461Z,14.66
2023-05-21T00:34:08.717Z,14.63
2023-05-21T00:34:18.990Z,14.67
2023-05-21T00:34:29.262Z,14.63
2023-05-21T00:34:39.522Z,14.63
2023-05-21T00:34:49.781Z,14.66
2023-05-21T00:35:00.069Z,14.63
2023-05-21T00:35:10.349Z,14.66
2023-05-21T00:35:20.613Z,14.63
2023-05-21T00:35:30.867Z,14.63
2023-05-21T00:35:41.130Z,14.62
2023-05-21T00:35:51.396Z,14.62
2023-05-21T00:36:01.652Z,14.61
2023-05-21T00:36:11.914Z,14.61
2023-05-21T00:36:22.174Z,14.61
2023-05-21T00:36:32.431Z,14.61
2023-05-21T00:36:42.699Z,14.62
2023-05-21T00:36:52.965Z,14.61
2023-05-21T00:37:03.220Z,14.61
2023-05-21T00:37:13.475Z,14.61
2023-05-21T00:37:23.749Z,14.61
2023-05-21T00:37:34.002Z,14.62
2023-05-21T00:37:44.270Z,14.61
2023-05-21T00:37:54.523Z,14.58
2023-05-21T00:38:04.784Z,14.58
2023-05-21T00:38:15.065Z,14.59
2023-05-21T00:38:25.323Z,14.59
2023-05-21T00:38:35.586Z,14.59
2023-05-21T00:38:46.129Z,14.58
2023-05-21T00:38:56.254Z,14.59
2023-05-21T00:39:06.516Z,14.56
2023-05-21T00:39:16.777Z,14.59
2023-05-21T00:39:27.046Z,14.56
2023-05-21T00:39:37.303Z,14.59
2023-05-21T00:39:47.563Z,14.58
2023-05-21T00:39:58.452Z,14.58
2023-05-21T00:40:08.148Z,14.58
2023-05-21T00:40:18.428Z,14.56
2023-05-21T00:40:28.681Z,14.56
2023-05-21T00:40:38.940Z,14.56
2023-05-21T00:40:49.202Z,14.56
2023-05-21T00:40:59.468Z,14.56
2023-05-21T00:41:09.730Z,14.56
2023-05-21T00:41:19.986Z,14.56
2023-05-21T00:41:30.325Z,14.53
2023-05-21T00:41:40.557Z,14.55
2023-05-21T00:41:50.826Z,14.53
2023-05-21T00:42:01.077Z,14.55
2023-05-21T00:42:11.351Z,14.52
2023-05-21T00:42:21.592Z,14.56
2023-05-21T00:42:31.861Z,14.53
2023-05-21T00:42:42.217Z,14.55
2023-05-21T00:42:52.478Z,14.53
2023-05-21T00:43:02.742Z,14.55
2023-05-21T00:43:13.009Z,14.53
2023-05-21T00:43:23.273Z,14.52
2023-05-21T00:43:33.536Z,14.52
2023-05-21T00:43:43.816Z,14.53
2023-05-21T00:43:54.087Z,14.53
2023-05-21T00:44:04.390Z,14.52
2023-05-21T00:44:14.667Z,14.52
2023-05-21T00:44:24.899Z,14.51
2023-05-21T00:44:35.219Z,14.52
2023-05-21T00:44:45.460Z,14.49
2023-05-21T00:44:55.741Z,14.51
2023-05-21T00:45:05.977Z,14.51
2023-05-21T00:45:16.242Z,14.51
2023-05-21T00:45:26.502Z,14.49
2023-05-21T00:45:37.162Z,14.51
2023-05-21T00:45:47.209Z,14.49
2023-05-21T00:45:57.534Z,14.51
2023-05-21T00:46:07.814Z,14.51
2023-05-21T00:46:18.136Z,14.51
2023-05-21T00:46:28.422Z,14.49
2023-05-21T00:46:38.656Z,14.48
2023-05-21T00:46:49.025Z,14.48
2023-05-21T00:46:59.293Z,14.48
2023-05-21T00:47:09.547Z,14.51
2023-05-21T00:47:19.804Z,14.48
2023-05-21T00:47:30.089Z,14.48
2023-05-21T00:47:40.381Z,14.49
2023-05-21T00:47:50.629Z,14.45
2023-05-21T00:48:00.953Z,14.48
2023-05-21T00:48:11.229Z,14.48
2023-05-21T00:48:21.491Z,14.48
2023-05-21T00:48:31.762Z,14.49
2023-05-21T00:48:42.036Z,14.45
2023-05-21T00:48:52.292Z,14.45
2023-05-21T00:49:02.578Z,14.44
2023-05-21T00:49:12.840Z,14.44
2023-05-21T00:49:23.101Z,14.43
2023-05-21T00:49:33.360Z,14.43
2023-05-21T00:49:43.624Z,14.43
2023-05-21T00:49:53.915Z,14.45
2023-05-21T00:50:04.169Z,14.41
2023-05-21T00:50:14.423Z,14.44
2023-05-21T00:50:24.686Z,14.43
2023-05-21T00:50:34.962Z,14.44
2023-05-21T00:50:45.220Z,14.44
2023-05-21T00:50:55.487Z,14.41
2023-05-21T00:51:05.755Z,14.41
2023-05-21T00:51:16.009Z,14.44
2023-05-21T00:51:26.280Z,14.41
2023-05-21T00:51:36.535Z,14.41
2023-05-21T00:51:46.795Z,14.43
2023-05-21T00:51:57.086Z,14.41
2023-05-21T00:52:07.331Z,14.38
2023-05-21T00:52:17.593Z,14.43
2023-05-21T00:52:27.868Z,14.41
2023-05-21T00:52:38.230Z,14.43
2023-05-21T00:52:48.488Z,14.43
2023-05-21T00:52:58.753Z,14.40
2023-05-21T00:53:09.024Z,14.41
2023-05-21T00:53:19.279Z,14.40
2023-05-21T00:53:29.532Z,14.41
2023-05-21T00:53:39.886Z,14.41
2023-05-21T00:53:50.145Z,14.38
2023-05-21T00:54:00.418Z,14.38
2023-05-21T00:54:10.668Z,14.38
2023-05-21T00:54:20.928Z,14.37
2023-05-21T00:54:31.189Z,14.40
2023-05-21T00:54:41.437Z,14.38
2023-05-21T00:54:51.699Z,14.38
2023-05-21T00:55:01.959Z,14.40
2023-05-21T00:55:12.261Z,14.38
2023-05-21T00:55:22.495Z,14.36
2023-05-21T00:55:32.763Z,14.37
2023-05-21T00:55:43.016Z,14.37
2023-05-21T00:55:53.277Z,14.37
2023-05-21T00:56:03.529Z,14.37
2023-05-21T00:56:13.863Z,14.37
2023-05-21T00:56:24.095Z,14.37
2023-05-21T00:56:34.349Z,14.36
2023-05-21T00:56:44.614Z,14.37
2023-05-21T00:56:54.907Z,14.36
2023-05-21T00:57:05.144Z,14.34
2023-05-21T00:57:15.404Z,14.36
2023-05-21T00:57:25.661Z,14.36
2023-05-21T00:57:35.941Z,14.36
2023-05-21T00:57:46.225Z,14.34
2023-05-21T00:57:56.593Z,14.34
2023-05-21T00:58:06.859Z,14.33
2023-05-21T00:58:17.110Z,14.36
2023-05-21T00:58:27.380Z,14.34
2023-05-21T00:58:37.637Z,14.34
2023-05-21T00:58:47.931Z,14.34
2023-05-21T00:58:58.206Z,14.33
2023-05-21T00:59:08.470Z,14.34
2023-05-21T00:59:18.714Z,14.31
2023-05-21T00:59:29.005Z,14.34
2023-05-21T00:59:39.256Z,14.33
2023-05-21T00:59:49.516Z,14.33
2023-05-21T00:59:59.799Z,14.33
2023-05-21T01:00:10.085Z,14.33
2023-05-21T01:00:20.342Z,14.33
2023-05-21T01:00:30.615Z,14.31
2023-05-21T01:00:40.889Z,14.31
2023-05-21T01:00:51.161Z,14.30
2023-05-21T01:01:01.435Z,14.31
2023-05-21T01:01:11.713Z,14.31
2023-05-21T01:01:22.001Z,14.33
2023-05-21T01:01:32.311Z,14.30
2023-05-21T01:01:42.723Z,14.31
2023-05-21T01:01:53.054Z,14.30
2023-05-21T01:02:03.370Z,14.28
2023-05-21T01:02:13.773Z,14.30
2023-05-21T01:02:24.316Z,14.30
2023-05-21T01:02:34.414Z,14.30
2023-05-21T01:02:44.906Z,14.28
2023-05-21T01:02:55.077Z,14.30
2023-05-21T01:03:05.516Z,14.30
2023-05-21T01:03:15.782Z,14.28
2023-05-21T01:03:25.996Z,14.30
2023-05-21T01:03:36.155Z,14.28
2023-05-21T01:03:46.475Z,14.26
2023-05-21T01:03:56.772Z,14.26
2023-05-21T01:04:07.029Z,14.30
2023-05-21T01:04:17.322Z,14.26
2023-05-21T01:04:27.609Z,14.28
2023-05-21T01:04:37.860Z,14.26
2023-05-21T01:04:48.145Z,14.26
2023-05-21T01:04:58.423Z,14.25
2023-05-21T01:05:08.669Z,14.26
2023-05-21T01:05:18.920Z,14.25
2023-05-21T01:05:29.176Z,14.25
2023-05-21T01:05:39.483Z,14.25
2023-05-21T01:05:49.733Z,14.26
2023-05-21T01:06:00.088Z,14.25
2023-05-21T01:06:10.339Z,14.26
2023-05-21T01:06:20.587Z,14.25
2023-05-21T01:06:30.849Z,14.25
2023-05-21T01:06:41.174Z,14.26
2023-05-21T01:06:51.437Z,14.25
2023-05-21T01:07:01.707Z,14.23
2023-05-21T01:07:11.961Z,14.26
2023-05-21T01:07:22.236Z,14.25
2023-05-21T01:07:32.541Z,14.25
2023-05-21T01:07:42.826Z,14.25
2023-05-21T01:07:53.073Z,14.23
2023-05-21T01:08:03.319Z,14.25
2023-05-21T01:08:13.578Z,14.25
2023-05-21T01:08:23.843Z,14.23
2023-05-21T01:08:34.104Z,14.23
2023-05-21T01:08:44.394Z,14.23
2023-05-21T01:08:54.637Z,14.22
2023-05-21T01:09:05.353Z,14.20
2023-05-21T01:09:15.146Z,14.22
2023-05-21T01:09:25.404Z,14.22
2023-05-21T01:09:35.675Z,14.22
2023-05-21T01:09:45.926Z,14.20
2023-05-21T01:09:56.186Z,14.22
2023-05-21T01:10:06.445Z,14.20
2023-05-21T01:10:16.720Z,14.20
2023-05-21T01:10:26.966Z,14.19
2023-05-21T01:10:37.225Z,14.19
2023-05-21T01:10:47.496Z,14.22
2023-05-21T01:10:57.787Z,14.19
2023-05-21T01:11:08.081Z,14.22
2023-05-21T01:11:18.316Z,14.20
2023-05-21T01:11:28.578Z,14.19
2023-05-21T01:11:38.904Z,14.19
2023-05-21T01:11:49.149Z,14.20
2023-05-21T01:11:59.404Z,14.20
2023-05-21T01:12:09.680Z,14.19
2023-05-21T01:12:19.934Z,14.19
2023-05-21T01:12:30.196Z,14.19
2023-05-21T01:12:40.467Z,14.18
2023-05-21T01:12:50.717Z,14.18
2023-05-21T01:13:00.982Z,14.19
2023-05-21T01:13:11.244Z,14.20
2023-05-21T01:13:21.511Z,14.19
2023-05-21T01:13:31.779Z,14.18
2023-05-21T01:13:42.031Z,14.16
2023-05-21T01:13:52.290Z,14.19
2023-05-21T01:14:02.556Z,14.18
2023-05-21T01:14:12.870Z,14.18
2023-05-21T01:14:23.147Z,14.18
2023-05-21T01:14:33.417Z,14.18
2023-05-21T01:14:43.686Z,14.18
2023-05-21T01:14:53.937Z,14.18
2023-05-21T01:15:04.215Z,14.18
2023-05-21T01:15:14.491Z,14.18
2023-05-21T01:15:24.714Z,14.18
2023-05-21T01:15:35.139Z,14.16
2023-05-21T01:15:45.249Z,14.18
2023-05-21T01:15:55.528Z,14.18
2023-05-21T01:16:05.792Z,14.16
2023-05-21T01:16:16.063Z,14.18
2023-05-21T01:16:26.368Z,14.16
2023-05-21T01:16:36.666Z,14.16
2023-05-21T01:16:46.989Z,14.15
2023-05-21T01:16:57.233Z,14.16
2023-05-21T01:17:07.590Z,14.18
2023-05-21T01:17:17.884Z,14.16
2023-05-21T01:17:28.173Z,14.16
2023-05-21T01:17:38.510Z,14.18
2023-05-21T01:17:48.788Z,14.16
2023-05-21T01:17:59.067Z,14.18
2023-05-21T01:18:09.330Z,14.15
2023-05-21T01:18:19.618Z,14.15
2023-05-21T01:18:29.925Z,14.15
2023-05-21T01:18:40.300Z,14.16
2023-05-21T01:18:50.610Z,14.15
2023-05-21T01:19:00.934Z,14.16
2023-05-21T01:19:11.296Z,14.15
2023-05-21T01:19:21.587Z,14.16
2023-05-21T01:19:31.855Z,14.13
2023-05-21T01:19:42.109Z,14.15
2023-05-21T01:19:52.384Z,14.13
2023-05-21T01:20:02.618Z,14.13
2023-05-21T01:20:13.021Z,14.15
2023-05-21T01:20:23.379Z,14.15
2023-05-21T01:20:33.643Z,14.11
2023-05-21T01:20:43.890Z,14.12
2023-05-21T01:20:54.169Z,14.13
2023-05-21T01:21:04.456Z,14.12
2023-05-21T01:21:14.704Z,14.13
2023-05-21T01:21:24.980Z,14.13
2023-05-21T01:21:35.225Z,14.13
2023-05-21T01:21:45.495Z,14.12
2023-05-21T01:21:55.748Z,14.12
2023-05-21T01:22:06.032Z,14.13
2023-05-21T01:22:16.287Z,14.13
2023-05-21T01:22:26.539Z,14.12
2023-05-21T01:22:36.799Z,14.12
2023-05-21T01:22:47.062Z,14.12
2023-05-21T01:22:57.352Z,14.11
2023-05-21T01:23:07.589Z,14.11
2023-05-21T01:23:17.848Z,14.11
2023-05-21T01:23:28.104Z,14.11
2023-05-21T01:23:38.365Z,14.12
2023-05-21T01:23:48.627Z,14.08
2023-05-21T01:23:58.895Z,14.08
2023-05-21T01:24:09.148Z,14.11
2023-05-21T01:24:19.408Z,14.08
2023-05-21T01:24:29.672Z,14.11
2023-05-21T01:24:39.938Z,14.11
2023-05-21T01:24:50.210Z,14.11
2023-05-21T01:25:00.464Z,14.12
2023-05-21T01:25:10.773Z,14.08
2023-05-21T01:25:21.041Z,14.08
2023-05-21T01:25:34.895Z,14.11
2023-05-21T01:25:41.665Z,14.07
2023-05-21T01:25:51.920Z,14.08
2023-05-21T01:26:02.191Z,14.08
2023-05-21T01:26:12.443Z,14.07
2023-05-21T01:26:22.718Z,14.08
2023-05-21T01:26:43.189Z,14.07
2023-05-21T01:26:53.469Z,14.05
2023-05-21T01:27:03.773Z,14.08
2023-05-21T01:27:14.029Z,14.08
2023-05-21T01:27:24.313Z,14.05
2023-05-21T01:27:34.583Z,14.07
2023-05-21T01:27:44.831Z,14.04
2023-05-21T01:27:55.121Z,14.07
2023-05-21T01:28:05.355Z,14.07
2023-05-21T01:28:15.623Z,14.05
2023-05-21T01:28:25.888Z,14.05
2023-05-21T01:28:36.142Z,14.07
2023-05-21T01:28:46.404Z,14.05
2023-05-21T01:28:56.675Z,14.05
2023-05-21T01:29:06.975Z,14.05
2023-05-21T01:29:17.205Z,14.04
2023-05-21T01:29:27.467Z,14.05
2023-05-21T01:29:37.742Z,14.05
2023-05-21T01:29:47.999Z,14.05
2023-05-21T01:29:58.256Z,14.05
2023-05-21T01:30:08.548Z,14.05
2023-05-21T01:30:18.809Z,14.04
2023-05-21T01:30:29.060Z,14.04
2023-05-21T01:30:39.317Z,14.07
2023-05-21T01:30:49.562Z,14.04
2023-05-21T01:30:59.828Z,14.05
2023-05-21T01:31:10.087Z,14.04
2023-05-21T01:31:20.345Z,14.04
2023-05-21T01:31:30.636Z,14.03
2023-05-21T01:31:40.898Z,14.04
2023-05-21T01:31:51.197Z,14.03
2023-05-21T01:32:01.481Z,14.05
2023-05-21T01:32:11.719Z,14.04
2023-05-21T01:32:22.046Z,14.04
2023-05-21T01:32:32.311Z,14.05
2023-05-21T01:32:42.697Z,14.04
2023-05-21T01:32:53.053Z,14.04
2023-05-21T01:33:03.523Z,14.03
2023-05-21T01:33:13.727Z,14.05
2023-05-21T01:33:23.965Z,14.04
2023-05-21T01:33:34.335Z,14.03
2023-05-21T01:33:44.664Z,14.03
2023-05-21T01:33:54.938Z,14.04
2023-05-21T01:34:05.395Z,14.04
2023-05-21T01:34:15.675Z,14.01
2023-05-21T01:34:25.938Z,14.01
2023-05-21T01:34:36.203Z,14.01
2023-05-21T01:34:46.474Z,14.03
2023-05-21T01:34:56.729Z,14.03
2023-05-21T01:35:06.987Z,14.03
2023-05-21T01:35:17.269Z,14.01
2023-05-21T01:35:27.528Z,14.03
2023-05-21T01:35:38.048Z,14.01
2023-05-21T01:35:48.153Z,14.03
2023-05-21T01:35:58.428Z,14.01
2023-05-21T01:36:08.750Z,14.04
2023-05-21T01:36:19.028Z,14.00
2023-05-21T01:36:29.275Z,14.01
2023-05-21T01:36:39.544Z,14.03
2023-05-21T01:36:49.798Z,14.00
2023-05-21T01:37:00.111Z,14.01
2023-05-21T01:37:10.347Z,14.00
2023-05-21T01:37:20.616Z,14.00
2023-05-21T01:37:30.864Z,14.00
2023-05-21T01:37:41.130Z,14.01
2023-05-21T01:37:51.400Z,13.98
2023-05-21T01:38:01.651Z,14.01
2023-05-21T01:38:11.913Z,14.01
2023-05-21T01:38:22.184Z,14.01
2023-05-21T01:38:32.432Z,13.98
2023-05-21T01:38:42.692Z,14.01
2023-05-21T01:38:52.954Z,14.01
2023-05-21T01:39:03.219Z,14.00
2023-05-21T01:39:13.490Z,13.98
2023-05-21T01:39:23.759Z,14.00
2023-05-21T01:39:34.037Z,13.98
2023-05-21T01:39:44.295Z,14.00
2023-05-21T01:39:54.562Z,14.00
2023-05-21T01:40:04.823Z,13.98
2023-05-21T01:40:15.084Z,13.98
2023-05-21T01:40:25.338Z,13.98
2023-05-21T01:40:35.608Z,13.97
2023-05-21T01:40:45.884Z,13.97
2023-05-21T01:40:56.126Z,14.00
2023-05-21T01:41:06.385Z,13.98
2023-05-21T01:41:16.649Z,14.00
2023-05-21T01:41:26.918Z,13.98
2023-05-21T01:41:37.187Z,14.00
2023-05-21T01:41:47.438Z,13.97
2023-05-21T01:41:57.710Z,13.98
2023-05-21T01:42:07.981Z,13.97
2023-05-21T01:42:18.275Z,13.98
2023-05-21T01:42:28.513Z,13.97
2023-05-21T01:42:38.772Z,13.95
2023-05-21T01:42:49.045Z,13.95
2023-05-21T01:42:59.314Z,13.98
2023-05-21T01:43:09.564Z,13.95
2023-05-21T01:43:19.841Z,13.95
2023-05-21T01:43:30.088Z,13.95
2023-05-21T01:43:40.358Z,13.95
2023-05-21T01:43:50.635Z,13.97
2023-05-21T01:44:00.910Z,13.95
2023-05-21T01:44:11.161Z,13.95
2023-05-21T01:44:21.439Z,13.95
2023-05-21T01:44:31.707Z,13.94
2023-05-21T01:44:41.973Z,13.97
2023-05-21T01:44:52.227Z,13.93
2023-05-21T01:45:02.491Z,13.94
2023-05-21T01:45:12.785Z,13.94
2023-05-21T01:45:23.016Z,13.94
2023-05-21T01:45:33.341Z,13.93
2023-05-21T01:45:43.658Z,13.93
2023-05-21T01:45:53.950Z,13.94
2023-05-21T01:46:04.250Z,13.94
2023-05-21T01:46:14.522Z,13.93
2023-05-21T01:46:24.801Z,13.95
2023-05-21T01:46:35.107Z,13.93
2023-05-21T01:46:45.594Z,13.93
2023-05-21T01:46:55.685Z,13.93
2023-05-21T01:47:05.948Z,13.93
2023-05-21T01:47:16.209Z,13.93
2023-05-21T01:47:26.487Z,13.91
2023-05-21T01:47:36.811Z,13.94
2023-05-21T01:47:47.050Z,13.91
2023-05-21T01:47:57.357Z,13.93
2023-05-21T01:48:07.609Z,13.91
2023-05-21T01:48:17.861Z,13.93
2023-05-21T01:48:28.113Z,13.93
2023-05-21T01:48:38.419Z,13.91
2023-05-21T01:48:48.658Z,13.89
2023-05-21T01:48:58.938Z,13.89
2023-05-21T01:49:09.207Z,13.91
2023-05-21T01:49:19.458Z,13.91
2023-05-21T01:49:29.732Z,13.91
2023-05-21T01:49:39.979Z,13.91
2023-05-21T01:49:50.249Z,13.89
2023-05-21T01:50:00.525Z,13.91
2023-05-21T01:50:10.776Z,13.89
2023-05-21T01:50:21.038Z,13.91
2023-05-21T01:50:31.295Z,13.89
2023-05-21T01:50:41.580Z,13.89
2023-05-21T01:50:51.828Z,13.89
2023-05-21T01:51:02.095Z,13.91
2023-05-21T01:51:12.352Z,13.89
2023-05-21T01:51:22.620Z,13.86
2023-05-21T01:51:32.871Z,13.91
2023-05-21T01:51:43.132Z,13.89
2023-05-21T01:51:53.405Z,13.86
2023-05-21T01:52:03.657Z,13.89
2023-05-21T01:52:13.921Z,13.89
2023-05-21T01:52:24.190Z,13.89
2023-05-21T01:52:34.446Z,13.89
2023-05-21T01:52:44.712Z,13.86
2023-05-21T01:52:54.994Z,13.87
2023-05-21T01:53:05.275Z,13.86
2023-05-21T01:53:15.543Z,13.86
2023-05-21T01:53:25.809Z,13.86
2023-05-21T01:53:36.082Z,13.87
2023-05-21T01:53:46.350Z,13.86
2023-05-21T01:53:56.611Z,13.87
2023-05-21T01:54:06.875Z,13.85
2023-05-21T01:54:17.135Z,13.85
2023-05-21T01:54:27.396Z,13.87
2023-05-21T01:54:37.661Z,13.86
2023-05-21T01:54:47.936Z,13.86
2023-05-21T01:54:58.184Z,13.85
2023-05-21T01:55:08.457Z,13.85
2023-05-21T01:55:18.720Z,13.85
2023-05-21T01:55:28.986Z,13.86
2023-05-21T01:55:39.242Z,13.85
2023-05-21T01:55:49.512Z,13.85
2023-05-21T01:55:59.772Z,13.86
2023-05-21T01:56:10.024Z,13.86
2023-05-21T01:56:20.289Z,13.85
2023-05-21T01:56:30.549Z,13.83
2023-05-21T01:56:40.818Z,13.85
2023-05-21T01:56:51.077Z,13.82
2023-05-21T01:57:01.335Z,13.83
2023-05-21T01:57:11.595Z,13.85
2023-05-21T01:57:21.865Z,13.83
2023-05-21T01:57:32.118Z,13.83
2023-05-21T01:57:42.400Z,13.85
2023-05-21T01:57:52.664Z,13.83
2023-05-21T01:58:02.920Z,13.83
2023-05-21T01:58:13.225Z,13.83
2023-05-21T01:58:23.495Z,13.83
2023-05-21T01:58:33.760Z,13.80
2023-05-21T01:58:44.042Z,13.82
2023-05-21T01:58:54.282Z,13.83
2023-05-21T01:59:04.542Z,13.82
2023-05-21T01:59:14.800Z,13.80
2023-05-21T01:59:25.074Z,13.82
2023-05-21T01:59:35.336Z,13.82
2023-05-21T01:59:45.586Z,13.83
2023-05-21T01:59:55.851Z,13.80
2023-05-21T02:00:06.111Z,13.82
2023-05-21T02:00:16.405Z,13.82
2023-05-21T02:00:26.640Z,13.80
2023-05-21T02:00:36.896Z,13.80
2023-05-21T02:00:47.173Z,13.80
2023-05-21T02:00:57.421Z,13.82
2023-05-21T02:01:07.693Z,13.82
2023-05-21T02:01:17.949Z,13.80
2023-05-21T02:01:28.219Z,13.80
2023-05-21T02:01:38.498Z,13.80
2023-05-21T02:01:48.755Z,13.80
2023-05-21T02:01:59.065Z,13.78
2023-05-21T02:02:09.439Z,13.80
2023-05-21T02:02:19.748Z,13.79
2023-05-21T02:02:30.221Z,13.80
2023-05-21T02:02:40.373Z,13.80
2023-05-21T02:02:50.620Z,13.78
2023-05-21T02:03:01.006Z,13.79
2023-05-21T02:03:11.189Z,13.78
2023-05-21T02:03:21.573Z,13.78
2023-05-21T02:03:31.847Z,13.76
2023-05-21T02:03:42.080Z,13.79
2023-05-21T02:03:52.395Z,13.78
2023-05-21T02:04:02.808Z,13.78
2023-05-21T02:04:13.060Z,13.78
2023-05-21T02:04:23.349Z,13.76
2023-05-21T02:04:33.603Z,13.76
2023-05-21T02:04:43.854Z,13.76
2023-05-21T02:04:54.101Z,13.76
2023-05-21T02:05:04.366Z,13.76
2023-05-21T02:05:14.632Z,13.75
2023-05-21T02:05:24.890Z,13.75
2023-05-21T02:05:35.421Z,13.78
2023-05-21T02:05:45.522Z,13.76
2023-05-21T02:05:55.896Z,13.73
2023-05-21T02:06:06.121Z,13.76
2023-05-21T02:06:16.392Z,13.75
2023-05-21T02:06:26.672Z,13.78
2023-05-21T02:06:36.911Z,13.75
2023-05-21T02:06:47.169Z,13.75
2023-05-21T02:06:57.437Z,13.75
2023-05-21T02:07:07.693Z,13.73
2023-05-21T02:07:17.965Z,13.75
2023-05-21T02:07:28.228Z,13.71
2023-05-21T02:07:38.504Z,13.73
2023-05-21T02:07:48.775Z,13.73
2023-05-21T02:07:59.034Z,13.71
2023-05-21T02:08:09.303Z,13.75
2023-05-21T02:08:19.562Z,13.71
2023-05-21T02:08:29.820Z,13.73
2023-05-21T02:08:40.080Z,13.71
2023-05-21T02:08:50.343Z,13.73
2023-05-21T02:09:00.617Z,13.73
2023-05-21T02:09:10.860Z,13.70
2023-05-21T02:09:21.128Z,13.73
2023-05-21T02:09:31.398Z,13.68
2023-05-21T02:09:41.662Z,13.70
2023-05-21T02:09:51.921Z,13.71
2023-05-21T02:10:02.177Z,13.73
2023-05-21T02:10:12.477Z,13.71
2023-05-21T02:10:22.725Z,13.70
2023-05-21T02:10:32.984Z,13.73
2023-05-21T02:10:43.242Z,13.70
2023-05-21T02:10:53.525Z,13.70
2023-05-21T02:11:03.764Z,13.71
2023-05-21T02:11:14.029Z,13.68
2023-05-21T02:11:24.290Z,13.68
2023-05-21T02:11:34.548Z,13.68
2023-05-21T02:11:44.826Z,13.68
2023-05-21T02:11:55.094Z,13.68
2023-05-21T02:12:05.349Z,13.68
2023-05-21T02:12:15.641Z,13.67
2023-05-21T02:12:25.955Z,13.68